Whitestown, Indiana
Current Conditions -  °F | °C
As of 4:15 AM on Sunday 26 Oct 2014 (Local Time) from KTYQ Reporting Station
Clear Clear  
Wind Chill: 45°   Ceiling: Unl
Heat Index: 45°   Visibility: 10mi
Dew Point: 33°   Wind: 3mph
Humidity: 63%   Direction: 300°WNW
Pressure: 29.99"   Gusts: NA
Location:  40°N, 86.35°W
Report Text: KTYQ 260815Z AUTO 30003KT 10SM CLR 07/01 A2999 RMK AO2 T00720005
Loading
Personal Weather Stations






























Interactive Weather Map
Tropical Storm Tracking
New forecast layout! Learn more

10-Day Weather Forecast

Advertisements
Track Severe Weather on mobile